createdAt,value
2023-02-06T00:03:25.239Z,1.53
2023-02-06T00:07:27.273Z,1.61
2023-02-06T00:11:29.350Z,1.55
2023-02-06T00:15:31.563Z,1.55
2023-02-06T00:19:33.572Z,1.61
2023-02-06T00:23:35.683Z,1.62
2023-02-06T00:27:37.822Z,1.67
2023-02-06T00:31:39.971Z,1.66
2023-02-06T00:35:42.344Z,1.67
2023-02-06T00:39:44.395Z,1.74
2023-02-06T00:43:46.417Z,1.85
2023-02-06T00:47:48.605Z,1.83
2023-02-06T00:51:50.887Z,1.80
2023-02-06T00:55:53.090Z,1.79
2023-02-06T00:59:57.117Z,1.65
2023-02-06T01:04:01.854Z,1.80
2023-02-06T01:08:04.620Z,1.70
2023-02-06T01:12:07.713Z,1.72
2023-02-06T01:16:11.015Z,1.63
2023-02-06T01:20:13.602Z,1.60
2023-02-06T01:24:15.778Z,1.74
2023-02-06T01:28:19.105Z,1.87
2023-02-06T01:32:22.194Z,1.82
2023-02-06T01:36:25.108Z,1.76
2023-02-06T01:40:28.390Z,1.81
2023-02-06T01:44:33.407Z,1.85
2023-02-06T01:48:35.602Z,1.92
2023-02-06T01:52:38.730Z,1.89
2023-02-06T01:56:43.825Z,1.83
2023-02-06T02:00:47.904Z,1.81
2023-02-06T02:04:49.955Z,1.87
2023-02-06T02:08:54.257Z,1.98
2023-02-06T02:12:56.478Z,1.99
2023-02-06T02:16:58.649Z,1.99
2023-02-06T02:21:18.917Z,1.96
2023-02-06T02:25:39.967Z,1.93
2023-02-06T02:30:04.014Z,1.85
2023-02-06T02:34:13.158Z,1.81
2023-02-06T02:38:30.104Z,1.72
2023-02-06T02:42:37.504Z,1.73
2023-02-06T02:46:46.967Z,1.65
2023-02-06T02:50:49.298Z,1.64
2023-02-06T02:54:51.443Z,1.62
2023-02-06T02:58:55.347Z,1.79
2023-02-06T03:02:57.741Z,1.73
2023-02-06T03:07:07.011Z,1.59
2023-02-06T03:11:09.158Z,1.69
2023-02-06T03:15:25.030Z,1.81
2023-02-06T03:19:39.785Z,1.65
2023-02-06T03:23:43.206Z,1.50
2023-02-06T03:27:45.786Z,1.41
2023-02-06T03:31:50.112Z,1.34
2023-02-06T03:35:52.920Z,1.20
2023-02-06T03:39:58.859Z,1.26
2023-02-06T03:44:03.341Z,1.21
2023-02-06T03:48:08.936Z,1.15
2023-02-06T03:52:13.848Z,1.10
2023-02-06T03:56:19.939Z,1.26
2023-02-06T04:00:22.256Z,1.24
2023-02-06T04:04:38.162Z,1.23
2023-02-06T04:08:40.244Z,1.22
2023-02-06T04:12:42.284Z,1.31
2023-02-06T04:16:44.386Z,1.24
2023-02-06T04:20:46.778Z,1.41
2023-02-06T04:24:49.187Z,1.51
2023-02-06T04:28:51.703Z,1.56
2023-02-06T04:32:53.784Z,1.49
2023-02-06T04:36:56.097Z,1.54
2023-02-06T04:41:02.419Z,1.58
2023-02-06T04:45:06.442Z,1.65
2023-02-06T04:49:08.508Z,1.62
2023-02-06T04:53:11.023Z,1.50
2023-02-06T04:57:13.133Z,1.39
2023-02-06T05:01:17.142Z,1.35
2023-02-06T05:05:19.487Z,1.15
2023-02-06T05:09:21.693Z,1.13
2023-02-06T05:13:24.144Z,1.23
2023-02-06T05:17:26.762Z,1.22
2023-02-06T05:21:28.845Z,1.41
2023-02-06T05:25:30.864Z,1.33
2023-02-06T05:29:32.872Z,1.26
2023-02-06T05:33:35.545Z,1.46
2023-02-06T05:37:40.878Z,1.34
2023-02-06T05:41:43.267Z,1.43
2023-02-06T05:45:45.414Z,1.43
2023-02-06T05:49:48.474Z,1.35
2023-02-06T05:53:50.926Z,1.26
2023-02-06T05:57:56.123Z,1.43
2023-02-06T06:01:58.862Z,1.50
2023-02-06T06:06:01.089Z,1.42
2023-02-06T06:10:03.415Z,1.50
2023-02-06T06:18:45.430Z,1.20
2023-02-06T06:22:47.829Z,1.15
2023-02-06T06:26:49.827Z,1.06
2023-02-06T06:31:00.075Z,1.19
2023-02-06T06:35:02.261Z,1.14
2023-02-06T06:39:04.372Z,1.09
2023-02-06T06:43:06.402Z,1.21
2023-02-06T06:47:08.348Z,1.25
2023-02-06T06:51:10.485Z,1.32
2023-02-06T06:55:12.850Z,1.48
2023-02-06T06:59:16.292Z,1.48
2023-02-06T07:03:22.374Z,1.62
2023-02-06T07:07:24.435Z,1.52
2023-02-06T07:11:26.915Z,1.56
2023-02-06T07:15:29.088Z,1.70
2023-02-06T07:19:31.175Z,1.71
2023-02-06T07:23:33.173Z,1.73
2023-02-06T07:27:35.215Z,1.80
2023-02-06T07:31:37.356Z,1.77
2023-02-06T07:35:39.369Z,1.72
2023-02-06T07:39:41.421Z,1.84
2023-02-06T07:43:43.829Z,2.01
2023-02-06T07:47:46.089Z,2.12
2023-02-06T07:51:48.187Z,2.17
2023-02-06T07:55:50.575Z,2.27
2023-02-06T07:59:52.569Z,2.45
2023-02-06T08:03:55.375Z,2.51
2023-02-06T08:07:57.636Z,2.56
2023-02-06T08:11:59.648Z,2.56
2023-02-06T08:16:10.269Z,2.52
2023-02-06T08:20:12.640Z,2.64
2023-02-06T08:24:14.743Z,2.68
2023-02-06T08:28:17.206Z,2.82
2023-02-06T08:32:19.255Z,2.96
2023-02-06T08:36:22.526Z,3.00
2023-02-06T08:40:24.555Z,2.84
2023-02-06T08:44:26.567Z,2.83
2023-02-06T08:48:28.707Z,3.06
2023-02-06T08:52:30.848Z,3.18
2023-02-06T08:56:33.592Z,3.34
2023-02-06T09:00:36.275Z,3.38
2023-02-06T09:04:39.202Z,3.37
2023-02-06T09:08:41.871Z,3.42
2023-02-06T09:12:44.009Z,3.47
2023-02-06T09:16:46.162Z,3.52
2023-02-06T09:20:49.847Z,3.56
2023-02-06T09:24:51.910Z,3.63
2023-02-06T09:28:54.815Z,3.70
2023-02-06T09:32:56.793Z,3.66
2023-02-06T09:36:58.845Z,3.84
2023-02-06T09:41:02.449Z,3.99
2023-02-06T09:45:13.991Z,4.16
2023-02-06T09:49:21.813Z,4.35
2023-02-06T09:53:26.176Z,4.39
2023-02-06T09:57:36.257Z,4.59
2023-02-06T10:01:42.260Z,4.75
2023-02-06T10:06:03.241Z,4.80
2023-02-06T10:10:18.139Z,5.00
2023-02-06T10:14:24.938Z,5.19
2023-02-06T10:18:45.936Z,5.14
2023-02-06T10:22:53.089Z,5.17
2023-02-06T10:26:58.501Z,5.18
2023-02-06T10:31:00.769Z,5.21
2023-02-06T10:35:03.539Z,5.31
2023-02-06T10:39:14.649Z,5.62
2023-02-06T10:43:32.826Z,5.45
2023-02-06T10:47:55.156Z,5.23
2023-02-06T10:52:17.438Z,5.20
2023-02-06T10:56:22.839Z,5.41
2023-02-06T11:00:26.321Z,5.96
2023-02-06T11:04:34.468Z,5.92
2023-02-06T11:08:41.862Z,5.66
2023-02-06T11:13:07.136Z,5.70
2023-02-06T11:17:10.597Z,5.42
2023-02-06T11:21:13.874Z,5.57
2023-02-06T11:25:27.907Z,5.65
2023-02-06T11:29:39.959Z,5.48
2023-02-06T11:33:47.932Z,4.89
2023-02-06T11:37:53.099Z,5.20
2023-02-06T11:41:58.132Z,5.67
2023-02-06T11:46:26.522Z,6.53
2023-02-06T11:50:30.924Z,6.51
2023-02-06T11:54:35.625Z,6.25
2023-02-06T11:58:37.651Z,5.78
2023-02-06T12:02:39.773Z,5.71
2023-02-06T12:06:41.773Z,5.19
2023-02-06T12:11:01.621Z,5.28
2023-02-06T12:15:29.439Z,5.09
2023-02-06T12:19:31.797Z,4.95
2023-02-06T12:23:36.589Z,4.59
2023-02-06T12:27:39.682Z,4.89
2023-02-06T12:31:56.924Z,5.05
2023-02-06T12:36:15.968Z,4.89
2023-02-06T12:40:33.325Z,4.95
2023-02-06T12:44:54.388Z,4.79
2023-02-06T12:49:03.998Z,4.97
2023-02-06T12:53:16.672Z,5.11
2023-02-06T12:57:24.043Z,4.76
2023-02-06T13:01:40.487Z,4.73
2023-02-06T13:05:46.933Z,4.91
2023-02-06T13:09:48.884Z,5.01
2023-02-06T13:13:58.900Z,4.94
2023-02-06T13:18:01.030Z,5.04
2023-02-06T13:22:09.316Z,5.13
2023-02-06T13:26:11.429Z,5.04
2023-02-06T13:30:33.357Z,5.14
2023-02-06T13:34:35.593Z,5.30
2023-02-06T13:38:38.688Z,5.29
2023-02-06T13:42:52.138Z,5.28
2023-02-06T13:47:00.336Z,5.30
2023-02-06T13:51:05.795Z,5.30
2023-02-06T13:55:31.469Z,5.31
2023-02-06T13:59:38.278Z,5.38
2023-02-06T14:03:44.076Z,5.29
2023-02-06T14:08:04.934Z,5.32
2023-02-06T14:12:39.410Z,4.98
2023-02-06T14:17:01.618Z,5.33
2023-02-06T14:21:15.038Z,5.37
2023-02-06T14:25:25.640Z,5.25
2023-02-06T14:29:33.773Z,5.12
2023-02-06T14:33:51.498Z,4.83
2023-02-06T14:38:00.108Z,4.69
2023-02-06T14:42:06.572Z,4.83
2023-02-06T14:46:12.640Z,4.92
2023-02-06T14:50:29.277Z,4.87
2023-02-06T14:54:38.576Z,4.89
2023-02-06T14:58:47.337Z,4.70
2023-02-06T15:03:24.692Z,4.49
2023-02-06T15:07:34.541Z,4.52
2023-02-06T15:11:38.787Z,4.62
2023-02-06T15:15:51.924Z,4.48
2023-02-06T15:19:54.206Z,4.40
2023-02-06T15:23:57.592Z,4.22
2023-02-06T15:28:03.753Z,4.02
2023-02-06T15:32:18.027Z,3.95
2023-02-06T15:36:25.098Z,3.97
2023-02-06T15:40:31.208Z,3.57
2023-02-06T15:44:37.445Z,3.71
2023-02-06T15:48:39.958Z,3.59
2023-02-06T15:52:47.288Z,3.42
2023-02-06T15:57:12.241Z,3.31
2023-02-06T16:01:19.370Z,3.17
2023-02-06T16:05:47.951Z,3.05
2023-02-06T16:09:55.269Z,3.00
2023-02-06T16:13:57.997Z,2.84
2023-02-06T16:18:01.159Z,2.65
2023-02-06T16:22:05.103Z,2.61
2023-02-06T16:26:14.304Z,2.54
2023-02-06T16:30:22.570Z,2.43
2023-02-06T16:34:30.604Z,2.32
2023-02-06T16:38:32.638Z,2.26
2023-02-06T16:42:39.124Z,2.21
2023-02-06T16:46:41.721Z,2.10
2023-02-06T16:50:44.549Z,2.06
2023-02-06T16:54:47.057Z,2.00
2023-02-06T16:58:49.212Z,1.86
2023-02-06T17:02:55.205Z,1.77
2023-02-06T17:06:57.194Z,1.69
2023-02-06T17:10:59.099Z,1.63
2023-02-06T17:15:01.358Z,1.60
2023-02-06T17:19:03.466Z,1.52
2023-02-06T17:23:05.791Z,1.58
2023-02-06T17:27:11.448Z,1.59
2023-02-06T17:31:13.841Z,1.49
2023-02-06T17:35:16.435Z,1.52
2023-02-06T17:39:19.075Z,1.56
2023-02-06T17:43:21.140Z,1.56
2023-02-06T17:47:23.163Z,1.56
2023-02-06T17:51:25.326Z,1.58
2023-02-06T17:55:27.985Z,1.54
2023-02-06T17:59:30.038Z,1.56
2023-02-06T18:03:32.157Z,1.57
2023-02-06T18:07:34.560Z,1.65
2023-02-06T18:11:36.650Z,1.63
2023-02-06T18:15:48.544Z,1.68
2023-02-06T18:19:50.744Z,1.70
2023-02-06T18:23:53.300Z,1.74
2023-02-06T18:27:55.549Z,1.70
2023-02-06T18:31:57.569Z,1.71
2023-02-06T18:35:59.540Z,1.80
2023-02-06T18:40:01.996Z,1.77
2023-02-06T18:44:05.246Z,1.78
2023-02-06T18:48:08.678Z,1.81
2023-02-06T18:52:10.739Z,1.87
2023-02-06T18:56:12.773Z,1.99
2023-02-06T19:00:15.721Z,2.01
2023-02-06T19:04:18.639Z,2.09
2023-02-06T19:08:21.081Z,2.17
2023-02-06T19:12:23.166Z,2.20
2023-02-06T19:16:30.827Z,2.16
2023-02-06T19:20:33.014Z,2.15
2023-02-06T19:24:35.558Z,2.20
2023-02-06T19:28:39.258Z,2.30
2023-02-06T19:32:42.186Z,2.26
2023-02-06T19:36:44.373Z,2.24
2023-02-06T19:40:47.780Z,2.23
2023-02-06T19:44:56.367Z,2.36
2023-02-06T19:48:58.587Z,2.26
2023-02-06T19:53:01.092Z,2.30
2023-02-06T19:57:04.848Z,2.32
2023-02-06T20:01:08.611Z,2.32
2023-02-06T20:05:11.070Z,2.31
2023-02-06T20:09:16.870Z,2.33
2023-02-06T20:13:19.007Z,2.22
2023-02-06T20:17:21.996Z,2.18
2023-02-06T20:21:28.066Z,2.09
2023-02-06T20:25:30.528Z,2.11
2023-02-06T20:29:35.736Z,2.02
2023-02-06T20:33:38.670Z,1.96
2023-02-06T20:37:40.947Z,1.95
2023-02-06T20:41:44.553Z,1.90
2023-02-06T20:45:46.723Z,1.71
2023-02-06T20:49:50.547Z,1.76
2023-02-06T20:53:55.474Z,1.77
2023-02-06T20:58:00.631Z,1.70
2023-02-06T21:02:02.713Z,1.72
2023-02-06T21:06:05.731Z,1.72
2023-02-06T21:10:10.387Z,1.74
2023-02-06T21:14:13.027Z,1.77
2023-02-06T21:18:18.341Z,1.72
2023-02-06T21:22:20.597Z,1.74
2023-02-06T21:26:24.033Z,1.76
2023-02-06T21:30:26.284Z,1.62
2023-02-06T21:34:28.796Z,1.64
2023-02-06T21:38:31.035Z,1.64
2023-02-06T21:42:33.353Z,1.59
2023-02-06T21:46:35.597Z,1.55
2023-02-06T21:50:38.989Z,1.53
2023-02-06T21:54:41.362Z,1.55
2023-02-06T21:58:44.082Z,1.40
2023-02-06T22:02:46.652Z,1.43
2023-02-06T22:06:50.378Z,1.38
2023-02-06T22:10:53.910Z,1.28
2023-02-06T22:14:56.080Z,1.25
2023-02-06T22:18:58.557Z,1.22
2023-02-06T22:23:00.854Z,1.22
2023-02-06T22:27:06.506Z,1.19
2023-02-06T22:31:22.708Z,1.21
2023-02-06T22:35:25.383Z,1.28
2023-02-06T22:39:27.517Z,1.21
2023-02-06T22:43:30.786Z,1.19
2023-02-06T22:47:34.173Z,1.15
2023-02-06T22:51:36.837Z,1.16
2023-02-06T22:55:58.061Z,1.11
2023-02-06T23:00:00.262Z,1.13
2023-02-06T23:04:03.995Z,1.22
2023-02-06T23:08:06.552Z,1.16
2023-02-06T23:12:11.838Z,1.11
2023-02-06T23:16:17.188Z,1.16
2023-02-06T23:20:25.843Z,1.11
2023-02-06T23:24:29.761Z,1.04
2023-02-06T23:28:36.842Z,0.99
2023-02-06T23:32:40.312Z,1.04
2023-02-06T23:36:42.960Z,1.14
2023-02-06T23:40:46.221Z,1.15
2023-02-06T23:44:50.167Z,1.20
2023-02-06T23:48:53.595Z,1.15
2023-02-06T23:52:56.032Z,1.15
2023-02-06T23:57:02.585Z,1.09
